createdAt,value
2022-09-12T00:01:35.706Z,1.80
2022-09-12T00:04:04.738Z,1.73
2022-09-12T00:06:35.584Z,1.73
2022-09-12T00:09:08.064Z,2.08
2022-09-12T00:11:40.042Z,2.08
2022-09-12T00:14:10.062Z,1.60
2022-09-12T00:16:39.738Z,2.45
2022-09-12T00:19:08.946Z,1.73
2022-09-12T00:21:39.372Z,1.92
2022-09-12T00:24:16.418Z,2.00
2022-09-12T00:26:46.287Z,1.92
2022-09-12T00:29:17.465Z,3.00
2022-09-12T00:31:46.328Z,2.45
2022-09-12T00:34:15.462Z,2.50
2022-09-12T00:36:44.006Z,1.58
2022-09-12T00:39:17.870Z,1.90
2022-09-12T00:41:47.751Z,2.03
2022-09-12T00:44:44.619Z,2.60
2022-09-12T00:47:19.019Z,2.33
2022-09-12T00:49:51.106Z,2.63
2022-09-12T00:52:23.412Z,3.15
2022-09-12T00:54:57.327Z,5.10
2022-09-12T00:57:34.495Z,4.15
2022-09-12T01:00:11.820Z,3.67
2022-09-12T01:02:40.403Z,3.25
2022-09-12T01:05:10.554Z,3.20
2022-09-12T01:07:40.435Z,3.83
2022-09-12T01:10:10.943Z,3.83
2022-09-12T01:12:43.764Z,2.85
2022-09-12T01:15:12.943Z,3.55
2022-09-12T01:17:53.291Z,3.25
2022-09-12T01:20:36.897Z,2.88
2022-09-12T01:23:21.340Z,2.97
2022-09-12T01:26:04.251Z,3.25
2022-09-12T01:28:54.675Z,3.55
2022-09-12T01:31:31.859Z,3.63
2022-09-12T01:34:10.601Z,3.90
2022-09-12T01:36:51.854Z,3.30
2022-09-12T01:39:31.412Z,3.55
2022-09-12T01:42:11.460Z,3.35
2022-09-12T01:44:49.233Z,3.33
2022-09-12T01:47:25.223Z,3.58
2022-09-12T01:50:01.802Z,3.72
2022-09-12T01:52:37.738Z,3.58
2022-09-12T01:55:11.531Z,3.40
2022-09-12T01:57:45.033Z,3.47
2022-09-12T02:00:15.046Z,2.85
2022-09-12T02:02:52.060Z,2.95
2022-09-12T02:05:27.110Z,2.80
2022-09-12T02:08:03.303Z,2.20
2022-09-12T02:10:35.196Z,3.33
2022-09-12T02:13:13.088Z,4.03
2022-09-12T02:15:47.482Z,3.50
2022-09-12T02:18:19.630Z,2.60
2022-09-12T02:20:50.195Z,2.83
2022-09-12T02:23:22.211Z,2.67
2022-09-12T02:25:54.597Z,2.75
2022-09-12T02:28:26.598Z,2.75
2022-09-12T02:31:10.246Z,2.58
2022-09-12T02:33:49.987Z,2.70
2022-09-12T02:36:33.480Z,2.10
2022-09-12T02:39:02.369Z,2.53
2022-09-12T02:41:30.848Z,2.15
2022-09-12T02:43:59.520Z,2.72
2022-09-12T02:46:33.496Z,2.15
2022-09-12T02:49:03.851Z,2.30
2022-09-12T02:51:33.070Z,2.40
2022-09-12T02:54:02.360Z,2.45
2022-09-12T02:56:32.369Z,2.10
2022-09-12T02:59:04.316Z,2.20
2022-09-12T03:01:49.395Z,2.35
2022-09-12T03:04:46.869Z,2.58
2022-09-12T03:07:22.188Z,2.80
2022-09-12T03:10:02.590Z,2.70
2022-09-12T03:12:44.575Z,2.67
2022-09-12T03:15:29.106Z,2.97
2022-09-12T03:18:19.970Z,2.45
2022-09-12T03:20:58.837Z,2.22
2022-09-12T03:23:34.647Z,2.60
2022-09-12T03:26:08.100Z,2.65
2022-09-12T03:28:40.740Z,2.38
2022-09-12T03:31:16.262Z,2.10
2022-09-12T03:33:45.167Z,2.35
2022-09-12T03:36:20.675Z,2.00
2022-09-12T03:38:49.162Z,1.95
2022-09-12T03:41:17.662Z,2.65
2022-09-12T03:43:47.046Z,2.40
2022-09-12T03:46:16.657Z,2.15
2022-09-12T03:48:45.203Z,1.92
2022-09-12T03:51:13.801Z,2.55
2022-09-12T03:53:43.748Z,2.28
2022-09-12T03:56:13.591Z,1.90
2022-09-12T03:58:42.945Z,1.92
2022-09-12T04:04:06.935Z,2.42
2022-09-12T04:06:35.725Z,1.98
2022-09-12T04:09:05.758Z,2.35
2022-09-12T04:11:35.965Z,2.30
2022-09-12T04:14:04.462Z,2.45
2022-09-12T04:16:33.576Z,1.90
2022-09-12T04:19:02.349Z,2.17
2022-09-12T04:21:31.107Z,2.08
2022-09-12T04:23:59.581Z,2.25
2022-09-12T04:26:30.055Z,2.63
2022-09-12T04:28:58.546Z,2.58
2022-09-12T04:31:27.515Z,2.42
2022-09-12T04:33:56.696Z,2.42
2022-09-12T04:36:25.761Z,2.35
2022-09-12T04:38:54.949Z,2.45
2022-09-12T04:41:25.975Z,2.50
2022-09-12T04:43:58.990Z,2.45
2022-09-12T04:46:27.847Z,2.50
2022-09-12T04:48:57.191Z,2.50
2022-09-12T04:51:28.453Z,2.65
2022-09-12T04:53:58.424Z,2.20
2022-09-12T04:56:28.135Z,2.22
2022-09-12T04:59:00.927Z,1.92
2022-09-12T05:01:30.526Z,2.05
2022-09-12T05:04:00.060Z,2.55
2022-09-12T05:06:30.939Z,2.40
2022-09-12T05:08:59.815Z,2.10
2022-09-12T05:11:53.081Z,2.50
2022-09-12T05:14:20.835Z,2.40
2022-09-12T05:16:49.957Z,2.08
2022-09-12T05:19:18.794Z,2.08
2022-09-12T05:21:47.254Z,1.77
2022-09-12T05:24:15.937Z,1.88
2022-09-12T05:26:44.415Z,1.80
2022-09-12T05:29:13.346Z,1.73
2022-09-12T05:31:43.503Z,1.77
2022-09-12T05:34:12.816Z,2.60
2022-09-12T05:36:41.285Z,2.70
2022-09-12T05:39:09.828Z,2.08
2022-09-12T05:41:38.277Z,1.85
2022-09-12T05:44:08.594Z,2.05
2022-09-12T05:46:39.918Z,1.63
2022-09-12T05:49:11.589Z,1.80
2022-09-12T05:51:42.193Z,2.20
2022-09-12T05:54:13.705Z,2.33
2022-09-12T05:56:44.372Z,2.13
2022-09-12T05:59:15.469Z,2.03
2022-09-12T06:01:44.748Z,2.25
2022-09-12T06:04:14.727Z,2.17
2022-09-12T06:06:45.302Z,2.00
2022-09-12T06:09:15.404Z,1.90
2022-09-12T06:11:44.686Z,1.60
2022-09-12T06:14:14.808Z,2.13
2022-09-12T06:16:43.576Z,1.75
2022-09-12T06:19:17.867Z,1.77
2022-09-12T06:21:47.706Z,1.52
2022-09-12T06:24:16.223Z,1.55
2022-09-12T06:26:45.308Z,1.42
2022-09-12T06:29:14.148Z,1.60
2022-09-12T06:31:44.415Z,1.77
2022-09-12T06:34:16.616Z,1.70
2022-09-12T06:36:47.475Z,1.55
2022-09-12T06:39:18.487Z,1.75
2022-09-12T06:41:48.486Z,1.95
2022-09-12T06:44:19.479Z,1.90
2022-09-12T06:46:48.249Z,1.63
2022-09-12T06:49:18.671Z,1.90
2022-09-12T06:51:47.358Z,2.17
2022-09-12T06:54:17.509Z,1.60
2022-09-12T06:56:46.405Z,2.40
2022-09-12T06:59:15.188Z,3.00
2022-09-12T07:01:43.948Z,2.78
2022-09-12T07:04:12.808Z,3.08
2022-09-12T07:06:44.896Z,2.72
2022-09-12T07:09:16.483Z,3.42
2022-09-12T07:11:46.079Z,4.05
2022-09-12T07:14:15.911Z,2.67
2022-09-12T07:16:44.740Z,2.28
2022-09-12T07:19:13.447Z,2.88
2022-09-12T07:21:43.301Z,2.42
2022-09-12T07:24:12.111Z,3.42
2022-09-12T07:26:42.312Z,4.57
2022-09-12T07:29:35.786Z,12.25
2022-09-12T07:32:06.031Z,6.38
2022-09-12T07:34:35.290Z,4.18
2022-09-12T07:37:05.260Z,4.80
2022-09-12T07:39:33.820Z,8.30
2022-09-12T07:42:02.322Z,10.88
2022-09-12T07:44:30.788Z,15.05
2022-09-12T07:46:59.400Z,11.77
2022-09-12T07:49:27.853Z,7.15
2022-09-12T07:52:00.951Z,5.20
2022-09-12T07:54:31.998Z,3.58
2022-09-12T07:57:00.505Z,4.28
2022-09-12T07:59:51.410Z,4.15
2022-09-12T08:02:18.478Z,12.32
2022-09-12T08:04:48.541Z,12.90
2022-09-12T08:07:18.555Z,12.35
2022-09-12T08:09:50.075Z,5.80
2022-09-12T08:12:20.446Z,5.90
2022-09-12T08:14:48.954Z,5.03
2022-09-12T08:17:17.378Z,4.63
2022-09-12T08:19:47.779Z,5.45
2022-09-12T08:22:22.118Z,5.88
2022-09-12T08:24:52.600Z,4.93
2022-09-12T08:27:21.254Z,3.83
2022-09-12T08:29:49.780Z,4.18
2022-09-12T08:32:18.495Z,5.03
2022-09-12T08:34:47.278Z,3.38
2022-09-12T08:37:15.786Z,4.25
2022-09-12T08:39:44.355Z,3.78
2022-09-12T08:42:25.967Z,3.75
2022-09-12T08:45:16.029Z,4.15
2022-09-12T08:47:46.691Z,4.53
2022-09-12T08:50:19.068Z,4.43
2022-09-12T08:52:58.759Z,4.40
2022-09-12T08:55:32.873Z,4.47
2022-09-12T08:58:09.340Z,4.03
2022-09-12T09:00:47.605Z,4.00
2022-09-12T09:03:31.277Z,3.40
2022-09-12T09:06:08.434Z,9.20
2022-09-12T09:08:53.461Z,13.70
2022-09-12T09:11:33.673Z,4.10
2022-09-12T09:14:39.652Z,3.38
2022-09-12T09:17:16.722Z,1.80
2022-09-12T09:19:51.091Z,2.33
2022-09-12T09:22:29.172Z,3.10
2022-09-12T09:25:03.818Z,2.83
2022-09-12T09:27:41.026Z,2.47
2022-09-12T09:30:16.112Z,2.67
2022-09-12T09:32:49.233Z,1.60
2022-09-12T09:35:20.709Z,1.27
2022-09-12T09:38:01.998Z,1.42
2022-09-12T09:40:46.544Z,3.30
2022-09-12T09:43:23.090Z,0.90
2022-09-12T09:45:54.233Z,1.40
2022-09-12T09:48:28.406Z,3.33
2022-09-12T09:51:01.993Z,2.13
2022-09-12T09:53:39.645Z,3.10
2022-09-12T09:56:12.925Z,1.90
2022-09-12T09:58:42.266Z,2.97
2022-09-12T10:01:18.147Z,1.67
2022-09-12T10:03:52.422Z,1.98
2022-09-12T10:06:32.479Z,2.50
2022-09-12T10:09:19.081Z,1.80
2022-09-12T10:11:48.579Z,1.85
2022-09-12T10:14:32.601Z,1.48
2022-09-12T10:17:04.237Z,1.33
2022-09-12T10:19:37.787Z,0.95
2022-09-12T10:22:08.069Z,0.80
2022-09-12T10:24:40.804Z,1.00
2022-09-12T10:27:20.397Z,1.15
2022-09-12T10:29:52.023Z,1.00
2022-09-12T10:32:30.977Z,0.43
2022-09-12T10:35:04.023Z,0.60
2022-09-12T10:37:36.060Z,0.55
2022-09-12T10:40:07.492Z,0.70
2022-09-12T10:42:51.237Z,0.73
2022-09-12T10:45:25.460Z,0.68
2022-09-12T10:47:56.799Z,0.80
2022-09-12T10:50:29.709Z,0.82
2022-09-12T10:53:16.170Z,0.50
2022-09-12T10:55:59.315Z,0.60
2022-09-12T10:58:57.107Z,0.93
2022-09-12T11:01:41.819Z,0.88
2022-09-12T11:04:30.362Z,0.50
2022-09-12T11:07:27.204Z,0.85
2022-09-12T11:10:01.821Z,0.80
2022-09-12T11:12:38.579Z,0.90
2022-09-12T11:15:31.175Z,0.40
2022-09-12T11:18:10.274Z,1.08
2022-09-12T11:20:55.151Z,1.10
2022-09-12T11:23:44.082Z,1.23
2022-09-12T11:26:26.428Z,0.90
2022-09-12T11:29:08.269Z,1.17
2022-09-12T11:31:55.328Z,1.02
2022-09-12T11:34:31.537Z,1.05
2022-09-12T11:37:25.999Z,1.00
2022-09-12T11:39:58.377Z,1.30
2022-09-12T11:42:37.960Z,1.33
2022-09-12T11:45:17.084Z,1.42
2022-09-12T11:47:51.358Z,1.60
2022-09-12T11:50:26.197Z,3.75
2022-09-12T11:53:01.557Z,1.38
2022-09-12T11:55:38.466Z,0.98
2022-09-12T11:58:09.981Z,0.95
2022-09-12T12:00:42.645Z,1.40
2022-09-12T12:03:19.545Z,1.10
2022-09-12T12:05:53.631Z,1.35
2022-09-12T12:08:25.301Z,1.17
2022-09-12T12:10:57.652Z,1.30
2022-09-12T12:13:31.445Z,0.90
2022-09-12T12:16:04.232Z,0.90
2022-09-12T12:18:34.390Z,1.27
2022-09-12T12:21:23.252Z,1.17
2022-09-12T12:24:15.980Z,1.50
2022-09-12T12:26:55.736Z,0.52
2022-09-12T12:29:48.325Z,1.05
2022-09-12T12:32:25.073Z,0.65
2022-09-12T12:35:04.031Z,1.27
2022-09-12T12:38:07.109Z,0.90
2022-09-12T12:40:36.991Z,0.85
2022-09-12T12:43:32.263Z,1.02
2022-09-12T12:46:09.358Z,1.60
2022-09-12T12:48:51.181Z,1.15
2022-09-12T12:51:41.549Z,1.13
2022-09-12T12:54:28.882Z,1.48
2022-09-12T12:57:17.617Z,0.55
2022-09-12T12:59:53.176Z,1.08
2022-09-12T13:02:31.200Z,0.95
2022-09-12T13:05:02.558Z,0.95
2022-09-12T13:07:35.831Z,1.33
2022-09-12T13:10:07.082Z,0.73
2022-09-12T13:12:44.449Z,1.35
2022-09-12T13:15:48.889Z,1.45
2022-09-12T13:18:23.794Z,1.40
2022-09-12T13:20:57.722Z,2.85
2022-09-12T13:23:28.746Z,2.13
2022-09-12T13:25:59.147Z,2.33
2022-09-12T13:28:30.136Z,2.42
2022-09-12T13:31:10.195Z,1.77
2022-09-12T13:33:42.450Z,1.17
2022-09-12T13:36:38.584Z,0.90
2022-09-12T13:39:20.351Z,0.57
2022-09-12T13:42:30.593Z,1.20
2022-09-12T13:45:04.389Z,0.95
2022-09-12T13:47:38.134Z,1.40
2022-09-12T13:50:09.036Z,1.08
2022-09-12T13:52:40.394Z,0.50
2022-09-12T13:55:19.906Z,0.70
2022-09-12T13:57:59.946Z,0.80
2022-09-12T14:00:32.413Z,1.08
2022-09-12T14:03:18.865Z,1.60
2022-09-12T14:05:56.893Z,1.50
2022-09-12T14:08:26.156Z,0.80
2022-09-12T14:10:55.093Z,0.70
2022-09-12T14:13:26.510Z,0.73
2022-09-12T14:15:59.885Z,0.85
2022-09-12T14:18:31.352Z,0.95
2022-09-12T14:21:10.537Z,1.10
2022-09-12T14:23:42.683Z,0.98
2022-09-12T14:26:15.501Z,1.13
2022-09-12T14:28:47.500Z,1.58
2022-09-12T14:31:25.459Z,0.80
2022-09-12T14:33:55.762Z,0.55
2022-09-12T14:36:28.176Z,1.10
2022-09-12T14:39:01.157Z,1.00
2022-09-12T14:41:33.998Z,0.68
2022-09-12T14:44:07.932Z,1.05
2022-09-12T14:46:39.638Z,0.98
2022-09-12T14:49:11.202Z,1.00
2022-09-12T14:51:42.671Z,0.90
2022-09-12T14:54:39.616Z,1.42
2022-09-12T14:57:29.611Z,1.30
2022-09-12T15:00:18.382Z,0.70
2022-09-12T15:02:49.386Z,0.98
2022-09-12T15:05:27.050Z,1.00
2022-09-12T15:08:00.739Z,1.70
2022-09-12T15:10:33.206Z,1.05
2022-09-12T15:13:23.146Z,0.95
2022-09-12T15:15:53.960Z,1.30
2022-09-12T15:18:25.907Z,0.90
2022-09-12T15:20:57.691Z,1.20
2022-09-12T15:23:33.823Z,1.17
2022-09-12T15:26:02.725Z,1.58
2022-09-12T15:28:32.727Z,1.60
2022-09-12T15:31:08.342Z,1.90
2022-09-12T15:33:38.220Z,2.53
2022-09-12T15:36:15.720Z,2.00
2022-09-12T15:38:44.835Z,2.28
2022-09-12T15:41:17.138Z,1.70
2022-09-12T15:43:47.154Z,2.28
2022-09-12T15:46:17.644Z,2.08
2022-09-12T15:48:47.522Z,1.27
2022-09-12T15:51:17.802Z,2.70
2022-09-12T15:53:47.570Z,1.15
2022-09-12T15:56:17.300Z,1.13
2022-09-12T15:58:58.416Z,1.20
2022-09-12T16:01:29.016Z,1.17
2022-09-12T16:03:59.485Z,1.17
2022-09-12T16:06:32.487Z,1.10
2022-09-12T16:09:05.388Z,1.30
2022-09-12T16:11:33.806Z,1.13
2022-09-12T16:14:03.860Z,1.88
2022-09-12T16:16:32.417Z,1.50
2022-09-12T16:19:02.325Z,0.93
2022-09-12T16:21:31.053Z,1.27
2022-09-12T16:23:59.560Z,1.92
2022-09-12T16:26:28.256Z,1.70
2022-09-12T16:28:57.286Z,0.88
2022-09-12T16:31:26.781Z,1.20
2022-09-12T16:33:55.411Z,1.20
2022-09-12T16:36:28.510Z,0.98
2022-09-12T16:38:57.045Z,1.40
2022-09-12T16:41:26.509Z,0.95
2022-09-12T16:43:55.840Z,1.08
2022-09-12T16:46:26.045Z,1.10
2022-09-12T16:48:56.779Z,1.60
2022-09-12T16:51:28.970Z,1.20
2022-09-12T16:53:58.137Z,1.30
2022-09-12T16:56:27.293Z,0.95
2022-09-12T16:58:56.005Z,1.20
2022-09-12T17:01:26.310Z,1.20
2022-09-12T17:03:56.396Z,1.35
2022-09-12T17:06:27.399Z,1.35
2022-09-12T17:09:00.819Z,1.77
2022-09-12T17:11:31.883Z,2.50
2022-09-12T17:14:06.477Z,2.45
2022-09-12T17:16:36.771Z,2.42
2022-09-12T17:19:06.134Z,2.88
2022-09-12T17:21:36.631Z,2.75
2022-09-12T17:24:05.515Z,2.63
2022-09-12T17:26:34.186Z,2.85
2022-09-12T17:29:03.297Z,2.17
2022-09-12T17:31:32.189Z,2.70
2022-09-12T17:34:01.645Z,2.55
2022-09-12T17:36:32.098Z,2.70
2022-09-12T17:39:03.925Z,2.35
2022-09-12T17:41:33.277Z,2.38
2022-09-12T17:44:03.613Z,2.85
2022-09-12T17:46:35.166Z,3.20
2022-09-12T17:49:05.610Z,4.00
2022-09-12T17:51:34.527Z,3.55
2022-09-12T17:54:06.846Z,3.03
2022-09-12T17:56:37.273Z,3.20
2022-09-12T17:59:07.544Z,3.20
2022-09-12T18:01:53.900Z,2.20
2022-09-12T18:04:22.373Z,2.50
2022-09-12T18:06:51.086Z,2.40
2022-09-12T18:09:23.509Z,2.90
2022-09-12T18:11:53.165Z,3.22
2022-09-12T18:14:21.926Z,3.30
2022-09-12T18:16:51.198Z,3.30
2022-09-12T18:19:19.938Z,3.67
2022-09-12T18:21:48.373Z,3.50
2022-09-12T18:24:17.367Z,3.53
2022-09-12T18:26:47.960Z,3.17
2022-09-12T18:29:17.448Z,4.68
2022-09-12T18:31:46.838Z,5.90
2022-09-12T18:34:15.914Z,5.07
2022-09-12T18:36:46.548Z,4.50
2022-09-12T18:39:15.539Z,3.90
2022-09-12T18:41:44.039Z,3.78
2022-09-12T18:44:14.104Z,3.20
2022-09-12T18:46:42.643Z,3.42
2022-09-12T18:49:11.461Z,3.33
2022-09-12T18:51:41.976Z,3.33
2022-09-12T18:54:14.584Z,3.25
2022-09-12T18:56:44.282Z,4.10
2022-09-12T18:59:15.151Z,3.08
2022-09-12T19:01:44.255Z,3.05
2022-09-12T19:04:15.081Z,2.70
2022-09-12T19:06:45.357Z,3.95
2022-09-12T19:09:15.766Z,3.80
2022-09-12T19:11:49.875Z,4.53
2022-09-12T19:14:22.677Z,4.07
2022-09-12T19:16:52.311Z,4.15
2022-09-12T19:19:21.365Z,3.80
2022-09-12T19:21:49.829Z,4.07
2022-09-12T19:24:18.527Z,5.28
2022-09-12T19:26:47.147Z,7.90
2022-09-12T19:29:16.827Z,4.93
2022-09-12T19:31:47.493Z,4.20
2022-09-12T19:34:16.447Z,4.53
2022-09-12T19:36:46.752Z,4.38
2022-09-12T19:39:16.616Z,4.65
2022-09-12T19:41:45.780Z,4.75
2022-09-12T19:44:14.617Z,4.53
2022-09-12T19:46:43.562Z,4.30
2022-09-12T19:49:14.059Z,4.40
2022-09-12T19:51:42.549Z,3.58
2022-09-12T19:54:11.116Z,4.80
2022-09-12T19:56:39.565Z,4.40
2022-09-12T19:59:08.805Z,4.22
2022-09-12T20:01:37.954Z,4.13
2022-09-12T20:04:07.045Z,4.25
2022-09-12T20:06:36.991Z,4.93
2022-09-12T20:09:05.532Z,4.53
2022-09-12T20:11:34.160Z,4.78
2022-09-12T20:14:03.002Z,4.65
2022-09-12T20:16:33.627Z,4.47
2022-09-12T20:19:06.155Z,5.35
2022-09-12T20:21:37.167Z,5.28
2022-09-12T20:24:07.008Z,5.35
2022-09-12T20:26:35.555Z,5.85
2022-09-12T20:29:05.477Z,6.57
2022-09-12T20:31:34.603Z,6.45
2022-09-12T20:34:03.327Z,5.90
2022-09-12T20:36:32.052Z,5.60
2022-09-12T20:39:03.400Z,5.75
2022-09-12T20:41:33.856Z,5.43
2022-09-12T20:44:02.430Z,5.57
2022-09-12T20:46:30.986Z,5.35
2022-09-12T20:48:59.743Z,6.45
2022-09-12T20:51:29.818Z,5.88
2022-09-12T20:53:59.125Z,6.43
2022-09-12T20:56:29.701Z,6.80
2022-09-12T20:58:59.065Z,8.25
2022-09-12T21:01:29.224Z,8.10
2022-09-12T21:03:57.910Z,6.25
2022-09-12T21:06:26.412Z,6.20
2022-09-12T21:08:58.504Z,4.97
2022-09-12T21:11:28.774Z,5.20
2022-09-12T21:13:58.009Z,5.05
2022-09-12T21:16:26.711Z,4.65
2022-09-12T21:18:57.033Z,2.60
2022-09-12T21:21:26.122Z,2.50
2022-09-12T21:23:55.514Z,3.80
2022-09-12T21:26:24.002Z,1.95
2022-09-12T21:28:53.846Z,1.90
2022-09-12T21:31:22.482Z,1.60
2022-09-12T21:33:52.153Z,2.15
2022-09-12T21:36:20.641Z,2.47
2022-09-12T21:38:49.305Z,2.65
2022-09-12T21:41:19.866Z,2.78
2022-09-12T21:43:48.698Z,2.53
2022-09-12T21:46:19.218Z,2.03
2022-09-12T21:48:47.682Z,2.30
2022-09-12T21:51:16.156Z,1.80
2022-09-12T21:53:44.754Z,2.33
2022-09-12T21:56:13.435Z,2.05
2022-09-12T21:58:41.924Z,2.05
2022-09-12T22:01:12.960Z,2.22
2022-09-12T22:03:44.964Z,2.10
2022-09-12T22:06:14.347Z,2.83
2022-09-12T22:08:43.166Z,2.50
2022-09-12T22:11:13.066Z,2.60
2022-09-12T22:13:44.091Z,2.75
2022-09-12T22:16:13.087Z,1.90
2022-09-12T22:18:43.022Z,2.33
2022-09-12T22:21:16.390Z,1.48
2022-09-12T22:24:02.235Z,1.50
2022-09-12T22:26:34.567Z,1.50
2022-09-12T22:29:03.298Z,1.60
2022-09-12T22:31:32.121Z,1.90
2022-09-12T22:34:02.059Z,1.75
2022-09-12T22:36:31.401Z,1.70
2022-09-12T22:39:01.055Z,1.75
2022-09-12T22:41:29.615Z,2.47
2022-09-12T22:43:58.669Z,2.20
2022-09-12T22:46:27.696Z,2.50
2022-09-12T22:48:56.894Z,2.42
2022-09-12T22:51:27.184Z,2.55
2022-09-12T22:53:56.604Z,2.25
2022-09-12T22:56:25.156Z,2.30
2022-09-12T22:58:54.218Z,2.47
2022-09-12T23:01:23.982Z,2.30
2022-09-12T23:03:52.627Z,1.90
2022-09-12T23:06:21.390Z,2.17
2022-09-12T23:08:51.446Z,2.00
2022-09-12T23:11:21.605Z,2.38
2022-09-12T23:13:52.290Z,2.45
2022-09-12T23:16:23.330Z,2.83
2022-09-12T23:18:52.311Z,2.20
2022-09-12T23:21:22.657Z,1.98
2022-09-12T23:23:52.559Z,2.55
2022-09-12T23:26:23.111Z,2.90
2022-09-12T23:28:53.686Z,2.20
2022-09-12T23:31:23.332Z,2.10
2022-09-12T23:33:54.203Z,2.53
2022-09-12T23:36:24.333Z,1.90
2022-09-12T23:38:55.782Z,1.60
2022-09-12T23:41:24.634Z,1.55
2022-09-12T23:43:53.436Z,1.38
2022-09-12T23:46:23.129Z,1.15
2022-09-12T23:48:53.344Z,0.60
2022-09-12T23:51:22.872Z,1.35
2022-09-12T23:53:51.546Z,0.90
2022-09-12T23:56:22.276Z,1.33
2022-09-12T23:58:50.810Z,1.55
